Time;durP1;ratioP1;P1;durP2;ratioP2;P2;SDS_P1;SDS_P2;PMS_P1;PMS_P2;Temp;Humidity;BMP_temperature;BMP_pressure;BME280_temperature;BME280_humidity;BME280_pressure;Samples;Min_cycle;Max_cycle;Signal;HPM_P1;HPM_P2
2022/08/08 00:01:43;;;;;;;1.27;1.17;;;22.50;51.40;;;;;;5093380;28;20013;-92
2022/08/08 00:04:23;;;;;;;1.75;1.25;;;22.50;51.10;;;;;;5092225;28;20032;-93
2022/08/08 00:07:25;;;;;;;3.97;1.80;;;22.50;51.00;;;;;;5080896;28;20119;-93
2022/08/08 00:10:06;;;;;;;2.38;1.38;;;;;;;;;;5098786;28;20028;-93
2022/08/08 00:12:55;;;;;;;5.40;1.45;;;22.60;51.00;;;;;;5075695;28;20357;-92
2022/08/08 00:15:30;;;;;;;2.08;1.70;;;;;;;;;;5077864;28;20032;-93
2022/08/08 00:18:02;;;;;;;1.23;1.08;;;;;;;;;;5091830;28;20020;-92
2022/08/08 00:20:43;;;;;;;1.70;1.02;;;22.20;51.30;;;;;;5092783;28;20035;-93
2022/08/08 00:23:16;;;;;;;2.38;1.48;;;;;;;;;;5091901;28;20024;-94
2022/08/08 00:25:46;;;;;;;2.60;1.58;;;;;;;;;;5092612;28;20024;-93
2022/08/08 00:28:14;;;;;;;1.80;1.20;;;;;;;;;;5093118;28;20051;-94
2022/08/08 00:30:50;;;;;;;1.38;1.20;;;22.20;52.40;;;;;;5096110;28;20107;-93
2022/08/08 00:33:17;;;;;;;1.23;1.10;;;;;;;;;;5097164;28;20028;-93
2022/08/08 00:35:59;;;;;;;2.45;1.48;;;22.70;49.40;;;;;;5090829;28;20473;-94
2022/08/08 00:38:39;;;;;;;3.40;1.40;;;22.20;50.50;;;;;;5086053;28;20078;-93
2022/08/08 00:41:08;;;;;;;2.28;1.40;;;;;;;;;;5082257;28;20024;-93
2022/08/08 00:43:40;;;;;;;2.03;1.50;;;;;;;;;;5083985;28;20020;-92
2022/08/08 00:46:25;;;;;;;5.72;1.33;;;;;;;;;;5091537;28;20093;-93
2022/08/08 00:48:54;;;;;;;1.92;1.10;;;;;;;;;;5091252;28;20024;-93
2022/08/08 00:51:23;;;;;;;2.75;1.15;;;;;;;;;;5088103;28;20034;-92
2022/08/08 00:53:55;;;;;;;1.40;1.02;;;;;;;;;;5095408;28;20493;-92
2022/08/08 00:56:27;;;;;;;2.15;1.25;;;;;;;;;;5090957;28;20028;-92
2022/08/08 00:59:05;;;;;;;4.05;1.50;;;;;;;;;;5095267;28;20149;-93
2022/08/08 01:02:08;;;;;;;1.48;0.93;;;21.00;53.60;;;;;;5086312;28;20020;-92
2022/08/08 01:04:40;;;;;;;1.88;1.30;;;;;;;;;;5083460;28;20097;-92
2022/08/08 01:07:16;;;;;;;1.00;0.88;;;;;;;;;;5092182;28;20031;-92
2022/08/08 01:09:45;;;;;;;2.90;1.48;;;;;;;;;;5102522;28;20484;-92
2022/08/08 01:12:20;;;;;;;2.20;1.55;;;;;;;;;;5091423;28;20024;-93
2022/08/08 01:15:08;;;;;;;2.65;1.67;;;;;;;;;;5091368;28;20067;-92
2022/08/08 01:17:40;;;;;;;1.73;1.30;;;;;;;;;;5079236;28;20021;-93
2022/08/08 01:20:10;;;;;;;1.77;1.15;;;;;;;;;;5089869;28;20024;-94
2022/08/08 01:23:14;;;;;;;2.22;1.77;;;21.00;53.80;;;;;;5081693;28;20515;-95
2022/08/08 01:26:23;;;;;;;1.20;0.93;;;20.90;54.40;;;;;;5085221;28;20043;-94
2022/08/08 01:28:56;;;;;;;2.13;1.02;;;;;;;;;;5087545;28;20449;-93
2022/08/08 01:31:22;;;;;;;1.33;1.08;;;;;;;;;;5094636;28;20024;-92
2022/08/08 01:34:26;;;;;;;1.55;0.85;;;21.40;51.90;;;;;;5095265;28;20016;-92
2022/08/08 01:37:29;;;;;;;1.35;1.10;;;21.40;51.80;;;;;;5090088;28;20028;-92
2022/08/08 01:40:11;;;;;;;2.90;1.02;;;;;;;;;;5088582;28;20031;-92
2022/08/08 01:42:45;;;;;;;1.83;0.93;;;21.90;51.30;;;;;;5083987;28;20099;-92
2022/08/08 01:45:11;;;;;;;0.93;0.80;;;;;;;;;;5094801;28;20040;-92
2022/08/08 01:47:37;;;;;;;1.83;0.80;;;;;;;;;;5087756;28;20027;-91
2022/08/08 01:50:28;;;;;;;1.88;1.10;;;22.00;50.60;;;;;;5093035;28;20051;-93
2022/08/08 01:52:54;;;;;;;2.28;1.48;;;;;;;;;;5092572;28;20131;-93
2022/08/08 01:55:48;;;;;;;4.25;1.60;;;21.00;53.00;;;;;;5083782;28;20022;-92
2022/08/08 01:58:19;;;;;;;1.08;0.75;;;;;;;;;;5082976;28;20024;-93
2022/08/08 02:00:53;;;;;;;1.83;0.80;;;21.20;52.20;;;;;;5095577;28;20020;-93
2022/08/08 02:04:01;;;;;;;2.00;1.25;;;21.30;51.90;;;;;;5094055;28;20016;-92
2022/08/08 02:07:00;;;;;;;1.15;1.02;;;21.50;51.50;;;;;;5095310;28;20649;-92
2022/08/08 02:09:41;;;;;;;2.47;1.42;;;;;;;;;;5087272;28;20378;-92
2022/08/08 02:12:23;;;;;;;1.40;1.00;;;;;;;;;;5089808;28;20039;-93
2022/08/08 02:14:51;;;;;;;1.38;1.00;;;;;;;;;;5089772;28;20024;-92
2022/08/08 02:17:39;;;;;;;1.42;0.90;;;19.60;54.80;;;;;;5088686;28;20476;-92
2022/08/08 02:20:18;;;;;;;1.58;0.90;;;19.20;56.50;;;;;;5077076;28;20074;-92
2022/08/08 02:23:08;;;;;;;1.10;0.80;;;19.80;56.00;;;;;;5091716;28;20067;-93
2022/08/08 02:25:56;;;;;;;2.38;1.02;;;;;;;;;;5095334;28;20419;-93
2022/08/08 02:29:00;;;;;;;2.58;1.42;;;19.90;55.40;;;;;;5075910;28;20021;-92
2022/08/08 02:31:39;;;;;;;2.15;1.15;;;;;;;;;;5023987;28;20037;-93
2022/08/08 02:34:19;;;;;;;1.52;1.02;;;19.80;55.20;;;;;;5052206;28;20053;-92
2022/08/08 02:37:35;;;;;;;1.70;1.20;;;20.00;55.60;;;;;;5045158;28;20023;-91
2022/08/08 02:40:27;;;;;;;2.00;1.38;;;20.10;54.70;;;;;;4992725;28;20026;-92
2022/08/08 02:43:05;;;;;;;1.60;1.00;;;;;;;;;;4976580;28;20034;-93
2022/08/08 02:45:57;;;;;;;1.40;1.23;;;19.70;56.70;;;;;;4985843;28;20030;-92
2022/08/08 02:48:47;;;;;;;2.63;1.70;;;20.20;56.10;;;;;;4976510;28;20045;-93
2022/08/08 02:51:44;;;;;;;1.65;1.00;;;19.20;56.00;;;;;;4984205;28;20027;-92
2022/08/08 02:54:24;;;;;;;;;;;18.60;59.40;;;;;;4980136;28;20042;-95
2022/08/08 02:56:50;;;;;;;3.55;1.23;;;;;;;;;;4992739;28;20004;-92
2022/08/08 02:59:38;;;;;;;3.88;1.42;;;;;;;;;;4981941;28;20113;-92
2022/08/08 03:02:14;;;;;;;3.95;1.10;;;;;;;;;;4989733;28;20035;-92
2022/08/08 03:04:55;;;;;;;2.40;1.35;;;;;;;;;;4991753;28;20034;-93
2022/08/08 03:07:44;;;;;;;2.38;1.10;;;19.40;58.20;;;;;;5005155;28;20072;-93
2022/08/08 03:10:47;;;;;;;1.60;1.30;;;20.10;56.70;;;;;;5011725;28;20172;-93
2022/08/08 03:13:25;;;;;;;1.17;1.08;;;;;;;;;;5025100;28;20036;-93
2022/08/08 03:15:54;;;;;;;4.07;1.45;;;;;;;;;;5093825;28;20032;-92
2022/08/08 03:18:36;;;;;;;3.80;1.88;;;20.70;54.10;;;;;;5093759;28;20104;-93
2022/08/08 03:21:02;;;;;;;2.00;1.02;;;;;;;;;;5092375;28;20058;-92
2022/08/08 03:23:29;;;;;;;2.53;1.30;;;;;;;;;;5089554;28;20020;-92
2022/08/08 03:25:56;;;;;;;;;;;;;;;;;;5092788;28;20126;-94
2022/08/08 03:28:22;;;;;;;2.35;1.63;;;;;;;;;;5093590;28;19904;-93
2022/08/08 03:30:48;;;;;;;1.60;1.33;;;;;;;;;;5092071;28;20421;-93
2022/08/08 03:33:17;;;;;;;1.13;1.02;;;;;;;;;;5082926;28;20051;-93
2022/08/08 03:35:45;;;;;;;2.83;1.08;;;20.50;53.50;;;;;;5088853;28;20020;-93
2022/08/08 03:38:11;;;;;;;1.58;1.00;;;;;;;;;;5083581;28;20048;-94
2022/08/08 03:40:37;;;;;;;2.22;1.40;;;;;;;;;;5089370;28;20106;-94
2022/08/08 03:43:04;;;;;;;2.13;1.23;;;;;;;;;;5093444;28;20020;-93
2022/08/08 03:45:30;;;;;;;4.82;0.90;;;;;;;;;;5093094;28;20399;-93
2022/08/08 03:48:07;;;;;;;1.35;0.90;;;19.30;55.60;;;;;;5081007;28;20023;-94
2022/08/08 03:50:33;;;;;;;1.27;0.90;;;;;;;;;;5090780;28;20020;-93
2022/08/08 03:53:06;;;;;;;1.65;1.08;;;;;;;;;;5093079;28;20044;-92
2022/08/08 03:55:32;;;;;;;1.65;1.15;;;;;;;;;;5084416;28;20031;-92
2022/08/08 03:57:58;;;;;;;1.67;1.55;;;;;;;;;;5078079;28;20024;-92
2022/08/08 04:00:26;;;;;;;3.10;1.80;;;18.70;58.30;;;;;;5091493;28;20035;-94
2022/08/08 04:03:03;;;;;;;1.35;1.10;;;;;;;;;;5080035;28;20032;-93
2022/08/08 04:05:30;;;;;;;4.32;1.13;;;19.10;57.50;;;;;;5082705;28;20032;-94
2022/08/08 04:07:56;;;;;;;;;;;19.50;56.50;;;;;;5090409;28;20464;-93
2022/08/08 04:10:23;;;;;;;1.00;0.80;;;;;;;;;;5075351;28;19951;-93
2022/08/08 04:12:49;;;;;;;4.72;1.52;;;;;;;;;;5092326;28;20052;-94
2022/08/08 04:15:15;;;;;;;1.23;1.10;;;;;;;;;;5092331;28;20028;-93
2022/08/08 04:17:41;;;;;;;4.78;2.00;;;;;;;;;;5090967;28;20556;-92
2022/08/08 04:20:08;;;;;;;1.38;0.93;;;;;;;;;;5091414;28;20062;-93
2022/08/08 04:22:34;;;;;;;1.60;1.23;;;;;;;;;;5089552;28;20567;-93
2022/08/08 04:25:00;;;;;;;1.75;1.30;;;;;;;;;;5082090;28;20584;-94
2022/08/08 04:27:26;;;;;;;1.85;1.30;;;;;;;;;;5102938;28;20047;-92
2022/08/08 04:29:52;;;;;;;2.58;1.45;;;;;;;;;;5091030;28;20049;-93
2022/08/08 04:32:18;;;;;;;1.58;1.30;;;;;;;;;;5086576;28;20016;-92
2022/08/08 04:34:45;;;;;;;5.18;1.10;;;;;;;;;;5092199;28;20031;-92
2022/08/08 04:37:11;;;;;;;1.60;1.13;;;18.80;58.70;;;;;;5091823;28;20031;-93
2022/08/08 04:39:38;;;;;;;1.50;1.13;;;;;;;;;;5090922;28;20024;-93
2022/08/08 04:42:04;;;;;;;1.50;1.10;;;;;;;;;;5089465;28;20077;-93
2022/08/08 04:44:30;;;;;;;1.13;1.00;;;;;;;;;;5090405;28;20032;-94
2022/08/08 04:46:56;;;;;;;1.20;0.95;;;;;;;;;;5084664;28;20554;-92
2022/08/08 04:49:22;;;;;;;2.17;1.42;;;;;;;;;;5090664;28;20118;-93
2022/08/08 04:51:48;;;;;;;2.30;1.30;;;;;;;;;;5084083;28;20050;-91
2022/08/08 04:54:14;;;;;;;1.52;1.30;;;;;;;;;;5091358;28;20048;-92
2022/08/08 04:56:40;;;;;;;2.08;1.35;;;;;;;;;;5090399;28;20038;-93
2022/08/08 04:59:06;;;;;;;1.63;1.13;;;;;;;;;;5089701;28;20012;-93
2022/08/08 05:01:32;;;;;;;2.05;1.33;;;;;;;;;;5090202;28;20023;-93
2022/08/08 05:03:58;;;;;;;8.30;1.73;;;;;;;;;;5082984;28;20060;-92
2022/08/08 05:06:24;;;;;;;2.03;1.25;;;;;;;;;;5087118;28;20047;-93
2022/08/08 05:08:50;;;;;;;2.13;1.48;;;;;;;;;;5091840;28;20024;-92
2022/08/08 05:11:16;;;;;;;1.77;1.25;;;;;;;;;;5091912;28;20055;-92
2022/08/08 05:13:42;;;;;;;2.08;1.23;;;;;;;;;;5091500;28;20028;-93
2022/08/08 05:16:09;;;;;;;5.35;1.73;;;19.80;56.10;;;;;;5089495;28;20050;-93
2022/08/08 05:18:38;;;;;;;1.95;1.38;;;;;;;;;;5081126;28;20062;-92
2022/08/08 05:21:05;;;;;;;2.30;1.35;;;;;;;;;;5091596;28;20032;-92
2022/08/08 05:23:31;;;;;;;3.77;1.53;;;;;;;;;;5091468;28;20027;-94
2022/08/08 05:25:58;;;;;;;6.05;2.50;;;;;;;;;;5091341;28;20686;-93
2022/08/08 05:28:25;;;;;;;3.22;1.45;;;;;;;;;;5088054;28;20119;-93
2022/08/08 05:30:51;;;;;;;1.77;1.27;;;;;;;;;;5090200;28;20058;-92
2022/08/08 05:33:17;;;;;;;1.98;1.63;;;;;;;;;;5091733;28;20024;-93
2022/08/08 05:35:43;;;;;;;2.65;1.65;;;;;;;;;;5091289;28;20021;-94
2022/08/08 05:38:14;;;;;;;1.75;1.45;;;19.90;56.70;;;;;;5091361;28;20027;-93
2022/08/08 05:40:51;;;;;;;6.40;1.25;;;20.10;55.90;;;;;;5089481;28;20521;-93
2022/08/08 05:43:20;;;;;;;1.88;1.67;;;;;;;;;;5090198;28;20031;-93
2022/08/08 05:45:46;;;;;;;2.53;1.55;;;;;;;;;;5082650;28;20036;-92
2022/08/08 05:48:12;;;;;;;1.60;1.17;;;;;;;;;;5078134;28;20028;-92
2022/08/08 05:50:39;;;;;;;2.55;1.10;;;20.10;56.70;;;;;;5083915;28;20571;-93
2022/08/08 05:53:05;;;;;;;1.27;1.08;;;;;;;;;;5083766;28;20770;-93
2022/08/08 05:55:33;;;;;;;1.25;1.13;;;19.90;56.40;;;;;;5091401;28;20103;-93
2022/08/08 05:58:00;;;;;;;1.60;1.27;;;;;;;;;;5090457;28;20020;-92
2022/08/08 06:00:31;;;;;;;3.92;1.55;;;20.20;56.30;;;;;;5103643;28;20028;-92
2022/08/08 06:03:11;;;;;;;1.88;1.60;;;20.50;55.90;;;;;;5090164;28;20032;-92
2022/08/08 06:05:58;;;;;;;2.00;1.70;;;20.60;55.00;;;;;;5091293;28;20063;-94
2022/08/08 06:08:28;;;;;;;;;;;20.60;55.00;;;;;;5091779;28;20111;-93
2022/08/08 06:10:56;;;;;;;2.17;1.15;;;20.70;54.80;;;;;;5090218;28;20574;-92
2022/08/08 06:13:22;;;;;;;2.50;1.23;;;;;;;;;;5072599;28;20069;-92
2022/08/08 06:15:50;;;;;;;2.53;1.30;;;20.90;53.90;;;;;;5092592;28;20032;-93
2022/08/08 06:18:17;;;;;;;1.23;0.90;;;21.10;53.10;;;;;;5094836;28;20489;-92
2022/08/08 06:20:46;;;;;;;3.40;1.63;;;21.40;52.50;;;;;;5082021;28;20029;-93
2022/08/08 06:23:12;;;;;;;1.27;1.05;;;;;;;;;;5082044;28;20031;-93
2022/08/08 06:25:42;;;;;;;1.88;1.02;;;21.50;52.50;;;;;;5093636;28;20239;-92
2022/08/08 06:28:30;;;;;;;1.50;1.13;;;21.80;52.00;;;;;;5093848;28;20035;-92
2022/08/08 06:31:05;;;;;;;4.53;1.05;;;21.90;51.80;;;;;;5092772;28;20023;-93
2022/08/08 06:33:36;;;;;;;5.93;1.73;;;;;;;;;;5095195;28;20028;-93
2022/08/08 06:36:02;;;;;;;1.52;1.10;;;;;;;;;;5093869;28;20039;-92
2022/08/08 06:38:33;;;;;;;2.17;1.33;;;21.80;53.40;;;;;;5095016;28;20028;-92
2022/08/08 06:41:05;;;;;;;4.15;1.50;;;22.00;53.30;;;;;;5094833;28;20384;-92
2022/08/08 06:43:35;;;;;;;1.58;1.00;;;22.00;52.70;;;;;;5094247;28;20032;-93
2022/08/08 06:46:02;;;;;;;4.43;1.20;;;22.30;50.60;;;;;;5087322;28;20054;-92
2022/08/08 06:48:29;;;;;;;2.10;0.93;;;;;;;;;;5080101;28;20116;-94
2022/08/08 06:50:56;;;;;;;1.98;1.42;;;;;;;;;;5087393;28;20032;-92
2022/08/08 06:53:24;;;;;;;1.33;0.90;;;;;;;;;;5093063;28;20052;-92
2022/08/08 06:55:50;;;;;;;5.43;1.10;;;;;;;;;;5093612;28;20115;-94
2022/08/08 06:58:16;;;;;;;5.40;1.80;;;;;;;;;;5092092;28;20093;-91
2022/08/08 07:00:47;;;;;;;1.98;1.20;;;23.50;47.40;;;;;;5091626;28;20499;-92
2022/08/08 07:03:26;;;;;;;2.40;1.10;;;23.90;46.40;;;;;;5079899;28;20036;-92
2022/08/08 07:05:56;;;;;;;0.93;0.77;;;24.20;45.30;;;;;;5094329;28;20392;-92
2022/08/08 07:08:28;;;;;;;2.45;1.90;;;;;;;;;;5091542;28;20515;-92
2022/08/08 07:10:58;;;;;;;6.47;2.85;;;27.00;42.00;;;;;;5073394;28;20051;-92
2022/08/08 07:13:35;;;;;;;4.60;2.60;;;28.80;39.70;;;;;;5092627;28;20039;-93
2022/08/08 07:16:04;;;;;;;3.45;1.98;;;;;;;;;;5092073;28;20051;-92
2022/08/08 07:19:11;;;;;;;2.10;2.00;;;31.80;34.80;;;;;;5089172;28;20062;-93
2022/08/08 07:21:49;;;;;;;1.92;1.83;;;32.50;33.10;;;;;;5024689;28;20025;-92
2022/08/08 07:24:33;;;;;;;2.05;1.95;;;33.00;33.00;;;;;;5033405;28;20045;-92
2022/08/08 07:27:00;;;;;;;2.63;2.42;;;;;;;;;;5040963;28;20022;-93
2022/08/08 07:29:26;;;;;;;2.33;2.13;;;;;;;;;;5046497;28;20112;-92
2022/08/08 07:31:52;;;;;;;1.92;1.83;;;;;;;;;;5025895;28;20580;-92
2022/08/08 07:34:18;;;;;;;1.70;1.60;;;;;;;;;;5033288;28;20037;-90
2022/08/08 07:36:47;;;;;;;3.83;1.75;;;36.10;30.00;;;;;;5043080;28;20021;-93
2022/08/08 07:39:16;;;;;;;2.67;2.45;;;37.00;29.60;;;;;;5025359;28;20032;-92
2022/08/08 07:41:42;;;;;;;2.00;1.90;;;;;;;;;;5024154;28;20021;-92
2022/08/08 07:44:09;;;;;;;2.35;1.67;;;37.30;29.20;;;;;;5021612;28;20041;-93
2022/08/08 07:46:35;;;;;;;3.33;1.63;;;;;;;;;;5027245;28;20131;-92
2022/08/08 07:49:01;;;;;;;1.70;1.60;;;;;;;;;;5041905;28;20072;-91
2022/08/08 07:51:27;;;;;;;1.85;1.70;;;;;;;;;;5033271;28;20124;-92
2022/08/08 07:53:58;;;;;;;;;;;36.70;30.10;;;;;;5042072;28;20143;-92
2022/08/08 07:56:26;;;;;;;1.40;1.30;;;37.70;29.50;;;;;;5037869;28;19905;-92
2022/08/08 07:58:52;;;;;;;1.30;1.20;;;;;;;;;;5080484;28;20116;-93
2022/08/08 08:01:21;;;;;;;1.42;1.33;;;;;;;;;;5093842;28;20048;-93
2022/08/08 08:03:59;;;;;;;1.90;1.13;;;;;;;;;;5093582;28;20012;-92
2022/08/08 08:06:26;;;;;;;1.17;1.08;;;37.40;29.80;;;;;;5093114;28;20028;-91
2022/08/08 08:08:52;;;;;;;1.55;1.10;;;;;;;;;;5090231;28;20020;-92
2022/08/08 08:11:20;;;;;;;0.80;0.63;;;38.10;29.20;;;;;;5098146;28;20110;-92
2022/08/08 08:13:53;;;;;;;0.82;0.52;;;38.00;29.20;;;;;;5092330;28;20055;-91
2022/08/08 08:16:23;;;;;;;1.40;0.50;;;36.60;29.30;;;;;;5089543;28;20036;-93
2022/08/08 08:19:01;;;;;;;0.95;0.40;;;38.00;29.90;;;;;;5084357;28;20020;-91
2022/08/08 08:21:32;;;;;;;1.67;0.80;;;39.00;28.80;;;;;;5092161;28;20102;-92
2022/08/08 08:23:57;;;;;;;2.05;0.68;;;;;;;;;;5093009;28;20023;-92
2022/08/08 08:26:24;;;;;;;0.98;0.60;;;;;;;;;;5091838;28;20028;-93
2022/08/08 08:28:49;;;;;;;;;;;40.20;27.70;;;;;;5093296;28;20027;-92
2022/08/08 08:31:15;;;;;;;;;;;40.60;27.70;;;;;;5088072;28;19908;-92
2022/08/08 08:33:41;;;;;;;3.17;0.50;;;;;;;;;;5091644;28;19994;-93
2022/08/08 08:36:08;;;;;;;0.50;0.40;;;;;;;;;;5086986;28;20028;-91
2022/08/08 08:38:34;;;;;;;0.70;0.43;;;;;;;;;;5091623;28;20093;-93
2022/08/08 08:41:00;;;;;;;2.03;0.77;;;;;;;;;;5090693;28;20078;-92
2022/08/08 08:43:27;;;;;;;1.17;0.88;;;;;;;;;;5089357;28;20548;-93
2022/08/08 08:45:54;;;;;;;1.25;0.77;;;40.90;27.50;;;;;;5088915;28;20032;-92
2022/08/08 08:48:20;;;;;;;0.98;0.70;;;;;;;;;;5088939;28;20028;-93
2022/08/08 08:50:49;;;;;;;0.60;0.40;;;40.60;27.50;;;;;;5090032;28;20500;-94
2022/08/08 08:53:15;;;;;;;0.63;0.43;;;;;;;;;;5091558;28;20124;-92
2022/08/08 08:55:43;;;;;;;2.15;0.50;;;;;;;;;;5092895;28;20086;-92
2022/08/08 08:58:40;;;;;;;1.50;0.90;;;39.30;27.70;;;;;;5092218;28;20023;-92
2022/08/08 09:01:09;;;;;;;1.20;0.63;;;40.40;27.60;;;;;;5090991;28;20012;-93
2022/08/08 09:03:35;;;;;;;4.53;0.93;;;;;;;;;;5079027;28;20028;-93
2022/08/08 09:06:02;;;;;;;3.42;1.65;;;39.00;27.60;;;;;;5092335;28;20599;-93
2022/08/08 09:08:31;;;;;;;0.73;0.55;;;38.80;27.80;;;;;;5092514;28;20048;-93
2022/08/08 09:10:57;;;;;;;1.25;0.65;;;;;;;;;;5091215;28;20030;-92
2022/08/08 09:13:23;;;;;;;0.50;0.50;;;;;;;;;;5092808;28;20051;-92
2022/08/08 09:15:50;;;;;;;0.68;0.40;;;;;;;;;;5087972;28;20024;-92
2022/08/08 09:18:16;;;;;;;1.98;0.65;;;;;;;;;;5090921;28;20056;-93
2022/08/08 09:20:44;;;;;;;1.85;0.60;;;40.00;27.50;;;;;;5092251;28;20024;-92
2022/08/08 09:23:11;;;;;;;1.75;0.55;;;39.50;26.90;;;;;;5091436;28;20024;-93
2022/08/08 09:25:42;;;;;;;0.70;0.47;;;41.00;26.80;;;;;;5091094;28;20032;-93
2022/08/08 09:28:08;;;;;;;1.17;0.65;;;;;;;;;;5091219;28;20598;-91
2022/08/08 09:30:34;;;;;;;1.23;0.63;;;;;;;;;;5090980;28;20098;-94
2022/08/08 09:33:03;;;;;;;3.45;0.80;;;41.10;26.10;;;;;;5091705;28;20207;-93
2022/08/08 09:35:31;;;;;;;0.60;0.30;;;40.80;26.10;;;;;;5089776;28;20031;-92
2022/08/08 09:38:02;;;;;;;0.70;0.38;;;40.90;26.60;;;;;;5084980;28;20027;-93
2022/08/08 09:40:30;;;;;;;4.97;0.55;;;42.20;26.60;;;;;;5078505;28;20033;-93
2022/08/08 09:43:25;;;;;;;1.42;0.60;;;42.60;26.20;;;;;;5083033;28;20017;-93
2022/08/08 09:46:02;;;;;;;0.70;0.55;;;42.50;26.00;;;;;;5083859;28;20040;-92
2022/08/08 09:48:32;;;;;;;1.10;0.32;;;;;;;;;;5088610;28;20819;-92
2022/08/08 09:50:58;;;;;;;2.92;0.50;;;;;;;;;;5095835;28;20020;-94
2022/08/08 09:53:34;;;;;;;1.02;0.40;;;;;;;;;;5093921;28;20052;-92
2022/08/08 09:56:03;;;;;;;0.87;0.57;;;41.20;25.00;;;;;;5085322;28;20035;-93
2022/08/08 09:58:38;;;;;;;0.63;0.40;;;42.00;25.30;;;;;;5097625;28;20027;-94
2022/08/08 10:01:08;;;;;;;0.97;0.50;;;42.00;25.60;;;;;;5091055;28;20044;-95
2022/08/08 10:03:35;;;;;;;0.50;0.40;;;;;;;;;;5095565;28;20282;-93
2022/08/08 10:06:14;;;;;;;0.88;0.50;;;41.80;25.10;;;;;;5095282;28;20052;-92
2022/08/08 10:08:47;;;;;;;0.75;0.30;;;;;;;;;;5093706;28;20034;-93
2022/08/08 10:11:17;;;;;;;1.15;0.68;;;42.30;25.70;;;;;;5080584;28;20031;-93
2022/08/08 10:14:02;;;;;;;1.58;0.30;;;42.00;25.70;;;;;;5093735;28;20027;-93
2022/08/08 10:16:38;;;;;;;0.50;0.28;;;41.50;40.10;;;;;;5110884;28;20020;-94
2022/08/08 10:19:07;;;;;;;0.68;0.32;;;;;;;;;;5094843;28;20054;-92
2022/08/08 10:21:34;;;;;;;1.27;0.40;;;42.00;25.40;;;;;;5088285;28;20024;-93
2022/08/08 10:24:06;;;;;;;1.60;0.55;;;42.30;25.10;;;;;;5087897;28;20459;-94
2022/08/08 10:26:51;;;;;;;0.77;0.50;;;41.80;24.80;;;;;;5094783;28;20166;-93
2022/08/08 10:29:30;;;;;;;0.55;0.40;;;41.90;25.50;;;;;;5080710;28;20028;-93
2022/08/08 10:34:50;;;;;;;0.50;0.30;;;42.40;24.90;;;;;;5094881;28;20074;-93
2022/08/08 10:37:24;;;;;;;0.95;0.50;;;42.40;25.00;;;;;;5081333;28;20032;-93
2022/08/08 10:39:50;;;;;;;1.52;0.38;;;;;;;;;;5089970;28;20043;-94
2022/08/08 10:42:18;;;;;;;0.63;0.45;;;;;;;;;;5091104;28;20405;-93
2022/08/08 10:44:44;;;;;;;2.53;0.63;;;;;;;;;;5091092;28;20035;-94
2022/08/08 10:47:10;;;;;;;0.95;0.60;;;;;;;;;;5092309;28;20619;-93
2022/08/08 10:49:36;;;;;;;1.00;0.73;;;;;;;;;;5094085;28;20654;-93
2022/08/08 10:52:03;;;;;;;0.35;0.30;;;;;;;;;;5093706;28;20028;-93
2022/08/08 10:54:29;;;;;;;0.70;0.43;;;;;;;;;;5093016;28;20046;-92
2022/08/08 10:57:01;;;;;;;0.22;0.22;;;40.90;24.10;;;;;;5091972;28;20032;-91
2022/08/08 10:59:27;;;;;;;0.73;0.50;;;;;;;;;;5092083;28;20027;-93
2022/08/08 11:01:53;;;;;;;0.95;0.30;;;;;;;;;;5079452;28;20102;-94
2022/08/08 11:04:20;;;;;;;1.40;0.40;;;;;;;;;;5082169;28;20033;-95
2022/08/08 11:06:46;;;;;;;0.75;0.50;;;;;;;;;;5093035;28;20032;-93
2022/08/08 11:09:12;;;;;;;0.38;0.32;;;;;;;;;;5092859;28;20070;-93
2022/08/08 11:11:44;;;;;;;0.30;0.13;;;38.20;26.40;;;;;;5080761;28;20404;-92
2022/08/08 11:14:13;;;;;;;0.70;0.35;;;;;;;;;;5092584;28;20055;-93
2022/08/08 11:16:41;;;;;;;0.40;0.30;;;37.50;27.90;;;;;;5089800;28;20504;-93
2022/08/08 11:19:07;;;;;;;0.80;0.40;;;37.10;28.20;;;;;;5093464;28;20070;-91
2022/08/08 11:21:39;;;;;;;2.97;0.77;;;37.10;28.30;;;;;;5107624;28;20028;-93
2022/08/08 11:24:07;;;;;;;1.27;0.55;;;36.70;28.00;;;;;;5093423;28;20020;-93
2022/08/08 11:26:35;;;;;;;1.70;0.50;;;36.60;28.10;;;;;;5093376;28;20050;-92
2022/08/08 11:29:02;;;;;;;1.95;0.65;;;;;;;;;;5093549;28;20099;-92
2022/08/08 11:31:29;;;;;;;;;;;36.00;28.90;;;;;;5082922;28;20047;-91
2022/08/08 11:33:58;;;;;;;1.10;0.32;;;35.90;29.20;;;;;;5092807;28;19908;-92
2022/08/08 11:36:24;;;;;;;3.78;0.30;;;;;;;;;;5093097;28;20109;-95
2022/08/08 11:38:50;;;;;;;1.00;0.52;;;;;;;;;;5092884;28;20106;-92
2022/08/08 11:41:17;;;;;;;0.38;0.30;;;;;;;;;;5087380;28;20036;-92
2022/08/08 11:43:44;;;;;;;0.70;0.35;;;35.20;28.30;;;;;;5090998;28;20111;-95
2022/08/08 11:46:09;;;;;;;;;;;35.20;28.50;;;;;;5077484;28;20028;-93
2022/08/08 11:48:36;;;;;;;2.08;0.40;;;;;;;;;;5090096;28;19958;-93
2022/08/08 11:51:02;;;;;;;0.82;0.30;;;;;;;;;;5099364;28;20028;-93
2022/08/08 11:53:29;;;;;;;0.47;0.30;;;;;;;;;;5090648;28;20067;-94
2022/08/08 11:55:55;;;;;;;3.45;0.50;;;;;;;;;;5097379;28;20035;-93
2022/08/08 11:58:31;;;;;;;0.60;0.30;;;33.90;28.60;;;;;;5090881;28;20031;-93
2022/08/08 12:00:57;;;;;;;1.50;0.88;;;;;;;;;;5093141;28;20024;-93
2022/08/08 12:03:25;;;;;;;2.90;0.40;;;34.20;29.20;;;;;;5091510;28;20031;-93
2022/08/08 12:05:52;;;;;;;0.70;0.40;;;34.40;29.30;;;;;;5092890;28;20296;-92
2022/08/08 12:08:35;;;;;;;0.60;0.40;;;34.10;29.20;;;;;;5079443;28;20044;-94
2022/08/08 12:11:12;;;;;;;0.93;0.30;;;34.00;29.80;;;;;;5083717;28;20114;-93
2022/08/08 12:13:37;;;;;;;;;;;33.80;30.30;;;;;;5089624;28;20507;-93
2022/08/08 12:16:17;;;;;;;2.88;0.63;;;;;;;;;;5091629;28;20007;-92
2022/08/08 12:18:47;;;;;;;1.15;0.50;;;33.80;29.50;;;;;;5089284;28;20035;-94
2022/08/08 12:21:22;;;;;;;0.50;0.50;;;34.00;29.70;;;;;;5090309;28;20020;-93
2022/08/08 12:23:49;;;;;;;0.70;0.32;;;;;;;;;;5091951;28;20028;-93
2022/08/08 12:26:22;;;;;;;0.30;0.20;;;33.40;30.20;;;;;;5091241;28;20044;-93
2022/08/08 12:28:58;;;;;;;1.23;0.73;;;;;;;;;;5092655;28;20032;-94
2022/08/08 12:31:35;;;;;;;1.02;0.50;;;;;;;;;;5086829;28;20035;-93
2022/08/08 12:34:01;;;;;;;0.85;0.43;;;;;;;;;;5092953;28;20020;-95
2022/08/08 12:36:41;;;;;;;0.98;0.43;;;33.30;30.90;;;;;;5092629;28;20480;-94
2022/08/08 12:39:08;;;;;;;0.65;0.40;;;33.20;31.10;;;;;;5087617;28;20500;-94
2022/08/08 12:41:35;;;;;;;1.38;0.52;;;33.20;31.30;;;;;;5084095;28;20101;-92
2022/08/08 12:44:06;;;;;;;1.38;0.40;;;33.20;30.90;;;;;;5090874;28;20534;-93
2022/08/08 12:46:32;;;;;;;1.02;0.70;;;;;;;;;;5092618;28;20056;-94
2022/08/08 12:49:00;;;;;;;0.38;0.30;;;;;;;;;;5091182;28;20027;-92
2022/08/08 12:51:26;;;;;;;0.90;0.52;;;;;;;;;;5092431;28;20032;-92
2022/08/08 12:53:58;;;;;;;0.65;0.35;;;33.20;31.40;;;;;;5092054;28;20066;-92
2022/08/08 12:56:37;;;;;;;0.68;0.40;;;;;;;;;;5091202;28;20043;-94
2022/08/08 12:59:21;;;;;;;1.88;0.95;;;32.80;31.80;;;;;;5093108;28;20020;-93
2022/08/08 13:01:59;;;;;;;0.80;0.52;;;32.90;31.70;;;;;;5088311;28;20035;-93
2022/08/08 13:04:31;;;;;;;1.20;0.22;;;32.70;31.10;;;;;;5090557;28;20039;-93
2022/08/08 13:06:59;;;;;;;1.02;0.70;;;;;;;;;;5091849;28;20020;-93
2022/08/08 13:09:51;;;;;;;2.85;0.70;;;31.50;30.70;;;;;;5091439;28;20036;-94
2022/08/08 13:12:17;;;;;;;0.57;0.30;;;;;;;;;;5083150;28;20439;-93
2022/08/08 13:14:51;;;;;;;1.80;0.63;;;32.60;31.10;;;;;;5083073;28;20055;-94
2022/08/08 13:17:24;;;;;;;0.95;0.70;;;32.40;31.00;;;;;;5090894;28;20036;-92
2022/08/08 13:19:50;;;;;;;1.75;1.00;;;;;;;;;;5090624;28;20012;-93
2022/08/08 13:22:16;;;;;;;1.97;0.80;;;;;;;;;;5092808;28;20031;-95
2022/08/08 13:24:43;;;;;;;3.22;1.02;;;;;;;;;;5091227;28;20285;-94
2022/08/08 13:27:10;;;;;;;1.27;0.80;;;;;;;;;;5096344;28;20489;-94
2022/08/08 13:29:38;;;;;;;0.32;0.30;;;;;;;;;;5095784;28;20020;-93
2022/08/08 13:32:04;;;;;;;1.00;0.50;;;;;;;;;;5083217;28;20040;-94
2022/08/08 13:34:35;;;;;;;2.97;0.57;;;;;;;;;;5095390;28;20559;-93
2022/08/08 13:37:01;;;;;;;0.73;0.38;;;;;;;;;;5091982;28;20024;-92
2022/08/08 13:39:27;;;;;;;1.90;0.40;;;;;;;;;;5083956;28;20565;-94
2022/08/08 13:41:54;;;;;;;2.97;0.52;;;;;;;;;;5095810;28;20020;-95
2022/08/08 13:44:21;;;;;;;1.83;0.63;;;;;;;;;;5095878;28;20123;-92
2022/08/08 13:46:58;;;;;;;0.77;0.50;;;31.90;31.00;;;;;;5095665;28;20091;-94
2022/08/08 13:49:24;;;;;;;0.35;0.35;;;;;;;;;;5093466;28;20020;-94
2022/08/08 13:51:53;;;;;;;1.52;0.82;;;;;;;;;;5091309;28;20081;-95
2022/08/08 13:54:21;;;;;;;4.47;0.95;;;31.90;30.70;;;;;;5083731;28;20044;-94
2022/08/08 13:56:47;;;;;;;0.52;0.30;;;;;;;;;;5092806;28;20032;-94
2022/08/08 13:59:13;;;;;;;1.53;0.77;;;;;;;;;;5097353;28;20020;-96
2022/08/08 14:01:39;;;;;;;0.63;0.37;;;;;;;;;;5091891;28;20039;-94
2022/08/08 14:04:05;;;;;;;2.92;0.50;;;;;;;;;;5091446;28;20016;-93
2022/08/08 14:06:32;;;;;;;1.05;0.73;;;;;;;;;;5092260;28;21323;-95
2022/08/08 14:08:58;;;;;;;2.97;0.50;;;;;;;;;;5086119;28;20039;-94
2022/08/08 14:11:28;;;;;;;2.23;0.43;;;31.70;29.50;;;;;;5092626;28;20020;-93
2022/08/08 14:13:54;;;;;;;1.02;0.40;;;;;;;;;;5094397;28;20036;-93
2022/08/08 14:16:20;;;;;;;1.98;0.30;;;;;;;;;;5093881;28;20055;-95
2022/08/08 14:18:57;;;;;;;0.57;0.27;;;;;;;;;;5095263;28;20028;-95
2022/08/08 14:21:37;;;;;;;;;;;31.20;29.70;;;;;;5095513;28;20422;-95
2022/08/08 14:24:03;;;;;;;0.75;0.43;;;;;;;;;;5094191;28;19904;-94